createdAt,value
2019-03-23T00:00:18.310Z,80.10
2019-03-23T00:02:47.076Z,80.00
2019-03-23T00:05:15.659Z,79.80
2019-03-23T00:07:44.408Z,79.70
2019-03-23T00:10:13.012Z,79.60
2019-03-23T00:12:41.672Z,79.60
2019-03-23T00:15:11.987Z,79.40
2019-03-23T00:17:40.657Z,79.30
2019-03-23T00:20:09.656Z,78.50
2019-03-23T00:22:39.951Z,78.90
2019-03-23T00:25:08.599Z,78.80
2019-03-23T00:27:37.227Z,78.60
2019-03-23T00:30:09.073Z,78.50
2019-03-23T00:32:37.604Z,78.40
2019-03-23T00:35:08.060Z,78.30
2019-03-23T00:37:43.383Z,78.40
2019-03-23T00:40:12.021Z,78.30
2019-03-23T00:42:40.615Z,78.20
2019-03-23T00:45:10.031Z,78.20
2019-03-23T00:47:39.384Z,78.10
2019-03-23T00:50:08.931Z,78.10
2019-03-23T00:52:39.029Z,78.00
2019-03-23T00:55:08.460Z,77.90
2019-03-23T00:57:37.073Z,77.90
2019-03-23T01:00:08.726Z,78.60
2019-03-23T01:02:37.343Z,77.90
2019-03-23T01:05:07.466Z,77.90
2019-03-23T01:07:36.060Z,77.90
2019-03-23T01:10:09.436Z,77.80
2019-03-23T01:12:40.890Z,77.90
2019-03-23T01:15:14.158Z,77.80
2019-03-23T01:17:47.824Z,77.80
2019-03-23T01:20:18.123Z,78.00
2019-03-23T01:22:48.918Z,77.80
2019-03-23T01:25:20.963Z,77.70
2019-03-23T01:27:49.542Z,77.70
2019-03-23T01:30:23.042Z,77.80
2019-03-23T01:32:53.803Z,77.70
2019-03-23T01:35:22.268Z,77.50
2019-03-23T01:37:52.004Z,77.40
2019-03-23T01:40:22.867Z,77.60
2019-03-23T01:42:51.720Z,77.50
2019-03-23T01:45:22.045Z,77.60
2019-03-23T01:47:51.800Z,77.70
2019-03-23T01:50:21.056Z,77.70
2019-03-23T01:52:50.449Z,77.90
2019-03-23T01:55:19.720Z,77.90
2019-03-23T01:57:49.001Z,77.90
2019-03-23T02:00:19.467Z,78.10
2019-03-23T02:02:47.752Z,78.20
2019-03-23T02:05:17.999Z,79.00
2019-03-23T02:07:46.629Z,78.30
2019-03-23T02:10:15.756Z,78.50
2019-03-23T02:12:44.248Z,78.50
2019-03-23T02:15:14.213Z,78.60
2019-03-23T02:17:44.438Z,78.80
2019-03-23T02:20:14.426Z,78.90
2019-03-23T02:22:42.969Z,79.10
2019-03-23T02:25:16.825Z,79.30
2019-03-23T02:27:52.884Z,79.40
2019-03-23T02:30:24.236Z,79.50
2019-03-23T02:32:53.998Z,79.50
2019-03-23T02:35:24.017Z,79.60
2019-03-23T02:37:52.471Z,79.80
2019-03-23T02:40:23.609Z,79.90
2019-03-23T02:42:53.304Z,80.00
2019-03-23T02:45:21.769Z,80.10
2019-03-23T02:47:50.331Z,80.00
2019-03-23T02:50:18.795Z,80.20
2019-03-23T02:52:50.016Z,80.30
2019-03-23T02:55:18.590Z,80.20
2019-03-23T02:57:47.103Z,80.30
2019-03-23T03:00:17.164Z,80.30
2019-03-23T03:02:47.353Z,80.40
2019-03-23T03:05:17.025Z,80.40
2019-03-23T03:07:45.472Z,80.60
2019-03-23T03:10:33.396Z,80.50
2019-03-23T03:13:03.017Z,80.60
2019-03-23T03:15:33.049Z,80.80
2019-03-23T03:18:02.699Z,80.90
2019-03-23T03:20:31.631Z,81.10
2019-03-23T03:23:02.974Z,81.30
2019-03-23T03:25:32.288Z,81.10
2019-03-23T03:28:01.123Z,82.00
2019-03-23T03:30:29.748Z,81.30
2019-03-23T03:32:58.305Z,81.50
2019-03-23T03:35:29.139Z,81.60
2019-03-23T03:37:58.461Z,81.70
2019-03-23T03:40:27.192Z,81.80
2019-03-23T03:42:55.713Z,81.90
2019-03-23T03:45:27.591Z,82.00
2019-03-23T03:47:57.303Z,82.10
2019-03-23T03:50:27.608Z,82.30
2019-03-23T03:52:58.679Z,82.50
2019-03-23T03:55:28.401Z,82.60
2019-03-23T03:57:57.020Z,82.60
2019-03-23T04:00:25.496Z,82.70
2019-03-23T04:02:54.018Z,83.60
2019-03-23T04:05:22.543Z,82.90
2019-03-23T04:07:53.611Z,83.00
2019-03-23T04:10:22.099Z,83.10
2019-03-23T04:12:51.130Z,83.20
2019-03-23T04:15:20.849Z,83.50
2019-03-23T04:17:49.685Z,83.60
2019-03-23T04:20:19.736Z,83.70
2019-03-23T04:22:48.232Z,84.00
2019-03-23T04:25:18.610Z,84.00
2019-03-23T04:27:47.226Z,84.10
2019-03-23T04:30:19.572Z,84.20
2019-03-23T04:32:48.060Z,84.10
2019-03-23T04:35:17.813Z,84.10
2019-03-23T04:37:47.555Z,84.10
2019-03-23T04:40:20.407Z,84.10
2019-03-23T04:42:48.856Z,84.00
2019-03-23T04:45:17.724Z,83.90
2019-03-23T04:47:46.518Z,83.90
2019-03-23T04:50:17.459Z,83.90
2019-03-23T04:52:49.265Z,83.80
2019-03-23T04:55:19.443Z,83.80
2019-03-23T04:57:48.018Z,83.80
2019-03-23T05:00:20.831Z,83.60
2019-03-23T05:02:51.395Z,83.70
2019-03-23T05:05:19.870Z,83.60
2019-03-23T05:07:48.336Z,83.50
2019-03-23T05:10:17.751Z,84.30
2019-03-23T05:12:46.224Z,83.30
2019-03-23T05:15:17.840Z,83.20
2019-03-23T05:17:46.728Z,83.10
2019-03-23T05:20:22.792Z,83.20
2019-03-23T05:22:51.269Z,83.20
2019-03-23T05:25:26.807Z,83.10
2019-03-23T05:28:07.699Z,83.00
2019-03-23T05:30:36.156Z,82.90
2019-03-23T05:33:06.298Z,82.80
2019-03-23T05:35:34.898Z,82.80
2019-03-23T05:38:03.395Z,82.70
2019-03-23T05:40:31.864Z,82.80
2019-03-23T05:43:00.371Z,82.80
2019-03-23T05:45:31.105Z,82.70
2019-03-23T05:48:01.135Z,82.60
2019-03-23T05:50:29.666Z,82.60
2019-03-23T05:52:59.487Z,82.50
2019-03-23T05:55:28.191Z,82.50
2019-03-23T05:57:59.666Z,82.50
2019-03-23T06:00:28.240Z,82.50
2019-03-23T06:02:56.730Z,82.30
2019-03-23T06:05:25.226Z,82.30
2019-03-23T06:07:53.815Z,82.40
2019-03-23T06:10:22.316Z,82.40
2019-03-23T06:12:51.574Z,82.30
2019-03-23T06:15:23.107Z,82.30
2019-03-23T06:17:53.032Z,82.40
2019-03-23T06:20:21.546Z,82.20
2019-03-23T06:23:00.783Z,82.20
2019-03-23T06:25:31.414Z,82.10
2019-03-23T06:28:01.203Z,82.10
2019-03-23T06:30:29.729Z,82.20
2019-03-23T06:33:00.586Z,82.20
2019-03-23T06:35:29.075Z,82.00
2019-03-23T06:37:57.792Z,81.90
2019-03-23T06:40:29.065Z,81.80
2019-03-23T06:43:00.102Z,81.70
2019-03-23T06:45:34.049Z,81.70
2019-03-23T06:48:05.381Z,81.70
2019-03-23T06:50:38.200Z,81.60
2019-03-23T06:53:06.640Z,81.50
2019-03-23T06:55:35.396Z,81.50
2019-03-23T06:58:05.419Z,81.40
2019-03-23T07:00:34.686Z,81.30
2019-03-23T07:03:04.752Z,81.30
2019-03-23T07:05:36.726Z,81.20
2019-03-23T07:08:07.529Z,81.10
2019-03-23T07:10:40.195Z,80.90
2019-03-23T07:13:08.689Z,80.90
2019-03-23T07:15:40.614Z,80.80
2019-03-23T07:18:09.866Z,80.80
2019-03-23T07:20:41.638Z,81.40
2019-03-23T07:23:11.751Z,80.50
2019-03-23T07:25:40.882Z,80.30
2019-03-23T07:28:09.452Z,80.30
2019-03-23T07:30:37.990Z,80.20
2019-03-23T07:33:06.558Z,79.90
2019-03-23T07:35:35.052Z,79.90
2019-03-23T07:38:04.893Z,79.80
2019-03-23T07:40:33.713Z,79.70
2019-03-23T07:43:06.230Z,79.70
2019-03-23T07:45:34.693Z,79.60
2019-03-23T07:48:04.753Z,79.60
2019-03-23T07:50:34.235Z,79.60
2019-03-23T07:53:04.794Z,79.40
2019-03-23T07:55:34.178Z,79.40
2019-03-23T07:58:06.213Z,79.20
2019-03-23T08:00:34.767Z,79.20
2019-03-23T08:03:03.552Z,79.10
2019-03-23T08:05:43.026Z,79.00
2019-03-23T08:08:12.662Z,78.90
2019-03-23T08:10:41.150Z,78.90
2019-03-23T08:13:11.920Z,78.80
2019-03-23T08:15:40.458Z,78.80
2019-03-23T08:18:12.109Z,78.70
2019-03-23T08:23:31.349Z,78.40
2019-03-23T08:26:01.915Z,78.30
2019-03-23T08:28:32.372Z,78.20
2019-03-23T08:31:01.500Z,78.20
2019-03-23T08:33:30.096Z,78.20
2019-03-23T08:35:59.872Z,78.10
2019-03-23T08:38:28.307Z,78.00
2019-03-23T08:40:59.109Z,77.70
2019-03-23T08:43:27.587Z,77.70
2019-03-23T08:45:57.537Z,77.50
2019-03-23T08:48:26.862Z,77.30
2019-03-23T08:50:55.323Z,77.10
2019-03-23T08:53:26.005Z,77.10
2019-03-23T08:55:59.317Z,76.90
2019-03-23T08:58:29.487Z,76.70
2019-03-23T09:00:59.075Z,76.80
2019-03-23T09:03:29.843Z,77.40
2019-03-23T09:05:58.307Z,76.50
2019-03-23T09:08:26.783Z,76.30
2019-03-23T09:10:55.337Z,76.10
2019-03-23T09:13:23.796Z,76.00
2019-03-23T09:15:52.251Z,75.80
2019-03-23T09:18:20.744Z,75.60
2019-03-23T09:20:49.368Z,75.20
2019-03-23T09:23:17.839Z,75.10
2019-03-23T09:25:46.324Z,75.00
2019-03-23T09:28:14.781Z,74.90
2019-03-23T09:30:44.892Z,74.70
2019-03-23T09:33:13.456Z,74.40
2019-03-23T09:35:42.587Z,74.40
2019-03-23T09:38:11.039Z,74.10
2019-03-23T09:40:39.523Z,73.90
2019-03-23T09:43:07.979Z,73.60
2019-03-23T09:45:38.395Z,73.60
2019-03-23T09:48:06.888Z,73.50
2019-03-23T09:50:35.348Z,73.10
2019-03-23T09:53:06.120Z,73.00
2019-03-23T09:55:34.678Z,72.70
2019-03-23T09:58:03.143Z,72.30
2019-03-23T10:00:34.269Z,72.10
2019-03-23T10:03:05.136Z,71.50
2019-03-23T10:05:38.109Z,71.30
2019-03-23T10:08:06.900Z,71.40
2019-03-23T10:10:38.664Z,70.60
2019-03-23T10:13:07.854Z,70.90
2019-03-23T10:15:36.319Z,70.00
2019-03-23T10:18:07.743Z,69.70
2019-03-23T10:20:36.258Z,69.50
2019-03-23T10:23:07.052Z,69.00
2019-03-23T10:25:35.531Z,68.50
2019-03-23T10:28:05.007Z,68.10
2019-03-23T10:30:35.857Z,68.80
2019-03-23T10:33:05.004Z,68.90
2019-03-23T10:35:33.766Z,68.90
2019-03-23T10:38:02.433Z,69.00
2019-03-23T10:40:32.660Z,69.20
2019-03-23T10:43:04.790Z,69.30
2019-03-23T10:45:40.051Z,69.50
2019-03-23T10:48:05.480Z,69.90
2019-03-23T10:50:34.535Z,69.80
2019-03-23T10:53:05.736Z,70.20
2019-03-23T10:55:34.250Z,70.60
2019-03-23T10:58:02.781Z,70.70
2019-03-23T11:00:31.279Z,70.80
2019-03-23T11:02:59.831Z,70.80
2019-03-23T11:05:28.306Z,70.80
2019-03-23T11:07:56.799Z,71.90
2019-03-23T11:10:25.335Z,71.20
2019-03-23T11:12:53.889Z,71.40
2019-03-23T11:15:22.621Z,71.60
2019-03-23T11:17:59.602Z,72.60
2019-03-23T11:20:28.227Z,71.90
2019-03-23T11:22:57.926Z,72.00
2019-03-23T11:25:28.644Z,72.10
2019-03-23T11:27:57.128Z,72.00
2019-03-23T11:30:25.612Z,72.30
2019-03-23T11:32:54.119Z,72.30
2019-03-23T11:35:25.569Z,72.10
2019-03-23T11:37:54.501Z,72.10
2019-03-23T11:40:23.177Z,72.10
2019-03-23T11:42:51.707Z,72.10
2019-03-23T11:45:22.499Z,71.80
2019-03-23T11:47:51.043Z,71.50
2019-03-23T11:50:21.190Z,71.50
2019-03-23T11:52:49.681Z,71.60
2019-03-23T11:55:18.156Z,71.40
2019-03-23T11:57:46.780Z,71.40
2019-03-23T12:00:16.651Z,71.50
2019-03-23T12:02:45.193Z,71.30
2019-03-23T12:05:14.315Z,71.30
2019-03-23T12:07:50.368Z,71.30
2019-03-23T12:10:18.825Z,71.40
2019-03-23T12:12:47.489Z,71.40
2019-03-23T12:15:17.864Z,71.80
2019-03-23T12:17:46.367Z,72.50
2019-03-23T12:20:14.984Z,72.90
2019-03-23T12:22:43.501Z,73.40
2019-03-23T12:25:13.092Z,73.70
2019-03-23T12:27:42.361Z,73.90
2019-03-23T12:30:13.828Z,74.20
2019-03-23T12:32:42.333Z,74.60
2019-03-23T12:35:12.234Z,74.70
2019-03-23T12:37:40.855Z,74.50
2019-03-23T12:40:09.764Z,73.20
2019-03-23T12:42:38.284Z,72.70
2019-03-23T12:45:08.545Z,72.20
2019-03-23T12:47:37.298Z,70.80
2019-03-23T12:50:08.321Z,70.80
2019-03-23T12:52:36.900Z,70.20
2019-03-23T12:55:07.837Z,69.60
2019-03-23T12:57:36.506Z,69.00
2019-03-23T13:00:13.994Z,69.20
2019-03-23T13:02:42.567Z,68.00
2019-03-23T13:05:11.092Z,67.70
2019-03-23T13:07:39.803Z,67.90
2019-03-23T13:10:11.372Z,67.20
2019-03-23T13:12:40.010Z,66.90
2019-03-23T13:15:11.705Z,66.50
2019-03-23T13:20:29.168Z,65.40
2019-03-23T13:22:59.042Z,64.70
2019-03-23T13:25:27.582Z,64.50
2019-03-23T13:27:57.591Z,64.50
2019-03-23T13:30:27.403Z,64.20
2019-03-23T13:32:57.413Z,63.60
2019-03-23T13:35:25.942Z,63.30
2019-03-23T13:37:54.738Z,62.60
2019-03-23T13:40:23.447Z,61.70
2019-03-23T13:42:51.910Z,61.90
2019-03-23T13:45:20.384Z,62.40
2019-03-23T13:47:50.375Z,62.40
2019-03-23T13:50:29.606Z,62.40
2019-03-23T13:52:58.221Z,62.10
2019-03-23T13:55:29.370Z,62.10
2019-03-23T13:58:01.057Z,62.10
2019-03-23T14:00:30.083Z,62.50
2019-03-23T14:02:59.940Z,62.90
2019-03-23T14:05:28.610Z,63.00
2019-03-23T14:07:57.123Z,63.40
2019-03-23T14:10:28.010Z,64.00
2019-03-23T14:13:01.352Z,64.40
2019-03-23T14:15:29.921Z,64.40
2019-03-23T14:17:58.465Z,64.30
2019-03-23T14:20:27.181Z,64.50
2019-03-23T14:23:02.597Z,64.80
2019-03-23T14:25:25.907Z,64.80
2019-03-23T14:27:54.560Z,64.70
2019-03-23T14:30:23.264Z,64.90
2019-03-23T14:32:51.813Z,64.60
2019-03-23T14:35:20.386Z,63.90
2019-03-23T14:37:49.081Z,64.00
2019-03-23T14:40:17.565Z,64.10
2019-03-23T14:42:46.156Z,63.80
2019-03-23T14:45:15.861Z,63.90
2019-03-23T14:47:44.339Z,63.70
2019-03-23T14:50:13.084Z,63.70
2019-03-23T14:52:41.587Z,63.60
2019-03-23T14:55:10.153Z,63.60
2019-03-23T14:57:40.538Z,63.70
2019-03-23T15:00:10.924Z,63.70
2019-03-23T15:02:40.771Z,63.70
2019-03-23T15:05:09.436Z,63.40
2019-03-23T15:07:42.519Z,63.40
2019-03-23T15:10:11.330Z,63.40
2019-03-23T15:12:41.582Z,63.20
2019-03-23T15:15:16.036Z,63.10
2019-03-23T15:17:48.768Z,62.70
2019-03-23T15:20:17.427Z,62.80
2019-03-23T15:22:45.986Z,62.60
2019-03-23T15:25:14.520Z,62.50
2019-03-23T15:27:43.448Z,61.70
2019-03-23T15:30:12.210Z,61.50
2019-03-23T15:32:40.766Z,60.80
2019-03-23T15:35:09.403Z,60.50
2019-03-23T15:37:38.033Z,60.00
2019-03-23T15:40:11.038Z,59.60
2019-03-23T15:42:39.891Z,59.20
2019-03-23T15:45:10.168Z,59.00
2019-03-23T15:47:38.899Z,58.50
2019-03-23T15:50:08.381Z,58.40
2019-03-23T15:52:37.107Z,58.40
2019-03-23T15:55:10.681Z,58.00
2019-03-23T15:57:39.330Z,57.80
2019-03-23T16:00:11.998Z,57.90
2019-03-23T16:02:41.350Z,57.00
2019-03-23T16:05:10.797Z,56.90
2019-03-23T16:07:43.391Z,56.30
2019-03-23T16:10:12.027Z,55.80
2019-03-23T16:12:40.956Z,55.40
2019-03-23T16:15:11.745Z,55.60
2019-03-23T16:17:42.357Z,55.60
2019-03-23T16:20:13.107Z,55.70
2019-03-23T16:22:41.741Z,55.70
2019-03-23T16:25:11.079Z,55.40
2019-03-23T16:27:40.756Z,55.30
2019-03-23T16:30:13.130Z,55.10
2019-03-23T16:32:41.672Z,54.70
2019-03-23T16:35:11.294Z,54.60
2019-03-23T16:37:40.002Z,54.20
2019-03-23T16:40:11.956Z,54.00
2019-03-23T16:42:45.265Z,54.20
2019-03-23T16:45:11.157Z,54.10
2019-03-23T16:47:39.692Z,54.60
2019-03-23T16:50:12.079Z,54.90
2019-03-23T16:52:41.866Z,55.20
2019-03-23T16:55:12.243Z,55.70
2019-03-23T16:57:40.696Z,55.80
2019-03-23T17:00:12.007Z,55.80
2019-03-23T17:02:43.677Z,56.00
2019-03-23T17:05:13.654Z,56.20
2019-03-23T17:07:42.929Z,56.50
2019-03-23T17:10:13.109Z,57.20
2019-03-23T17:12:43.640Z,57.90
2019-03-23T17:15:13.255Z,58.30
2019-03-23T17:17:43.975Z,58.90
2019-03-23T17:20:13.926Z,59.70
2019-03-23T17:22:42.384Z,60.20
2019-03-23T17:25:12.209Z,61.00
2019-03-23T17:27:41.224Z,61.50
2019-03-23T17:30:15.310Z,62.30
2019-03-23T17:32:47.367Z,62.80
2019-03-23T17:35:17.601Z,63.30
2019-03-23T17:37:50.375Z,63.80
2019-03-23T17:40:20.559Z,64.00
2019-03-23T17:42:54.608Z,64.60
2019-03-23T17:45:23.447Z,65.00
2019-03-23T17:48:01.678Z,66.10
2019-03-23T17:50:30.178Z,65.40
2019-03-23T17:52:58.759Z,65.70
2019-03-23T17:55:28.744Z,66.10
2019-03-23T17:57:57.450Z,66.70
2019-03-23T18:00:27.592Z,67.10
2019-03-23T18:02:56.184Z,67.60
2019-03-23T18:05:27.720Z,68.00
2019-03-23T18:07:56.246Z,68.60
2019-03-23T18:10:24.826Z,68.90
2019-03-23T18:12:53.347Z,69.60
2019-03-23T18:15:23.754Z,69.90
2019-03-23T18:17:53.643Z,70.30
2019-03-23T18:20:22.234Z,70.40
2019-03-23T18:22:50.671Z,70.80
2019-03-23T18:25:19.596Z,71.10
2019-03-23T18:27:48.205Z,71.50
2019-03-23T18:30:28.383Z,71.80
2019-03-23T18:32:58.301Z,72.00
2019-03-23T18:35:26.824Z,72.40
2019-03-23T18:37:55.269Z,72.60
2019-03-23T18:40:24.877Z,72.70
2019-03-23T18:42:54.151Z,73.10
2019-03-23T18:45:22.668Z,73.30
2019-03-23T18:47:52.481Z,73.30
2019-03-23T18:50:21.012Z,73.60
2019-03-23T18:52:49.583Z,73.60
2019-03-23T18:55:18.379Z,73.90
2019-03-23T18:57:48.394Z,74.00
2019-03-23T19:00:42.927Z,74.10
2019-03-23T19:03:11.729Z,74.10
2019-03-23T19:05:40.254Z,74.20
2019-03-23T19:08:11.773Z,74.20
2019-03-23T19:10:39.837Z,74.40
2019-03-23T19:13:08.466Z,74.70
2019-03-23T19:15:38.954Z,74.70
2019-03-23T19:18:07.741Z,74.90
2019-03-23T19:20:37.912Z,75.10
2019-03-23T19:23:06.565Z,75.10
2019-03-23T19:25:35.345Z,75.30
2019-03-23T19:28:03.872Z,75.50
2019-03-23T19:30:32.379Z,75.70
2019-03-23T19:33:00.904Z,75.70
2019-03-23T19:35:30.913Z,75.80
2019-03-23T19:38:03.000Z,76.00
2019-03-23T19:40:31.626Z,76.00
2019-03-23T19:43:00.172Z,76.20
2019-03-23T19:45:29.526Z,76.20
2019-03-23T19:47:58.056Z,76.20
2019-03-23T19:50:26.579Z,76.50
2019-03-23T19:52:55.111Z,76.50
2019-03-23T19:55:23.601Z,76.60
2019-03-23T19:57:54.585Z,76.60
2019-03-23T20:00:22.602Z,76.70
2019-03-23T20:02:53.351Z,76.90
2019-03-23T20:05:24.605Z,76.90
2019-03-23T20:07:53.684Z,77.00
2019-03-23T20:10:22.274Z,76.90
2019-03-23T20:12:52.201Z,77.00
2019-03-23T20:15:20.829Z,77.10
2019-03-23T20:17:50.533Z,77.20
2019-03-23T20:20:20.106Z,77.20
2019-03-23T20:22:49.460Z,77.40
2019-03-23T20:25:17.983Z,77.40
2019-03-23T20:27:46.796Z,77.50
2019-03-23T20:30:18.750Z,77.50
2019-03-23T20:32:47.232Z,77.50
2019-03-23T20:35:16.075Z,77.60
2019-03-23T20:37:47.767Z,77.80
2019-03-23T20:40:16.570Z,77.80
2019-03-23T20:42:49.008Z,77.60
2019-03-23T20:45:28.454Z,77.60
2019-03-23T20:47:57.619Z,77.70
2019-03-23T20:50:26.228Z,77.80
2019-03-23T20:52:56.374Z,77.70
2019-03-23T20:55:29.765Z,77.80
2019-03-23T20:57:58.786Z,77.90
2019-03-23T21:00:27.802Z,78.10
2019-03-23T21:02:56.633Z,78.00
2019-03-23T21:05:33.888Z,78.20
2019-03-23T21:08:00.374Z,78.40
2019-03-23T21:10:30.435Z,78.40
2019-03-23T21:13:00.197Z,78.00
2019-03-23T21:15:30.217Z,77.90
2019-03-23T21:18:04.174Z,78.00
2019-03-23T21:20:34.265Z,77.90
2019-03-23T21:23:02.917Z,77.90
2019-03-23T21:25:31.374Z,78.10
2019-03-23T21:28:01.195Z,78.40
2019-03-23T21:30:29.806Z,78.70
2019-03-23T21:32:58.263Z,78.90
2019-03-23T21:35:26.788Z,79.10
2019-03-23T21:37:58.503Z,79.00
2019-03-23T21:40:27.843Z,79.00
2019-03-23T21:42:59.839Z,78.50
2019-03-23T21:45:30.429Z,78.40
2019-03-23T21:47:59.063Z,78.30
2019-03-23T21:50:28.102Z,78.20
2019-03-23T21:52:56.625Z,78.50
2019-03-23T21:55:26.255Z,78.70
2019-03-23T21:57:54.771Z,78.80
2019-03-23T22:00:34.320Z,78.90
2019-03-23T22:03:04.450Z,79.00
2019-03-23T22:05:34.689Z,79.00
2019-03-23T22:08:11.158Z,79.00
2019-03-23T22:10:39.647Z,79.10
2019-03-23T22:13:08.352Z,79.10
2019-03-23T22:15:36.950Z,79.10
2019-03-23T22:18:05.612Z,79.30
2019-03-23T22:20:34.140Z,79.50
2019-03-23T22:23:02.749Z,79.70
2019-03-23T22:25:31.287Z,79.90
2019-03-23T22:27:59.904Z,79.90
2019-03-23T22:30:29.787Z,80.00
2019-03-23T22:32:58.251Z,80.00
2019-03-23T22:35:27.981Z,80.00
2019-03-23T22:37:57.478Z,80.00
2019-03-23T22:40:28.383Z,79.90
2019-03-23T22:42:57.067Z,80.00
2019-03-23T22:45:27.365Z,80.00
2019-03-23T22:47:56.311Z,80.10
2019-03-23T22:50:24.757Z,80.40
2019-03-23T22:52:54.603Z,80.20
2019-03-23T22:55:24.631Z,80.30
2019-03-23T22:58:00.176Z,80.40
2019-03-23T23:00:33.596Z,80.50
2019-03-23T23:03:02.076Z,80.60
2019-03-23T23:05:30.672Z,80.80
2019-03-23T23:07:59.453Z,80.70
2019-03-23T23:10:29.669Z,80.70
2019-03-23T23:12:58.111Z,80.60
2019-03-23T23:15:29.294Z,80.60
2019-03-23T23:18:00.143Z,80.80
2019-03-23T23:20:28.784Z,80.90
2019-03-23T23:22:57.904Z,81.00
2019-03-23T23:25:27.209Z,81.10
2019-03-23T23:28:05.958Z,81.10
2019-03-23T23:30:34.507Z,81.10
2019-03-23T23:33:03.022Z,81.20
2019-03-23T23:35:31.488Z,81.30
2019-03-23T23:37:59.967Z,81.40
2019-03-23T23:40:28.480Z,81.40
2019-03-23T23:42:59.282Z,81.50
2019-03-23T23:45:29.117Z,81.60
2019-03-23T23:47:59.073Z,81.70
2019-03-23T23:50:27.576Z,81.60
2019-03-23T23:52:56.059Z,81.70
2019-03-23T23:55:26.161Z,81.80
2019-03-23T23:57:54.672Z,81.80
